Time;durP1;ratioP1;P1;durP2;ratioP2;P2;SDS_P1;SDS_P2;PMS_P1;PMS_P2;Temp;Humidity;BMP_temperature;BMP_pressure;BME280_temperature;BME280_humidity;BME280_pressure;Samples;Min_cycle;Max_cycle;Signal;HPM_P1;HPM_P2
2023/07/18 00:02:18;;;;;;;0.10;0.10;;;;;;;11.47;100.00;101985.09;5055359;28;20431;-47
2023/07/18 00:04:43;;;;;;;0.08;0.08;;;;;;;11.57;100.00;101985.50;5055733;28;20032;-50
2023/07/18 00:07:08;;;;;;;0.10;0.10;;;;;;;11.65;100.00;101989.31;5055940;28;20389;-48
2023/07/18 00:09:37;;;;;;;0.10;0.10;;;;;;;11.56;100.00;101994.97;5054751;28;20029;-47
2023/07/18 00:12:03;;;;;;;0.10;0.10;;;;;;;11.52;100.00;101995.66;5055793;28;20033;-49
2023/07/18 00:14:29;;;;;;;0.10;0.10;;;;;;;11.38;100.00;101989.88;5055320;28;20078;-49
2023/07/18 00:16:55;;;;;;;0.10;0.10;;;;;;;11.40;100.00;101996.00;5055159;28;20032;-47
2023/07/18 00:19:20;;;;;;;0.10;0.10;;;;;;;11.33;100.00;102001.69;5055797;28;20025;-49
2023/07/18 00:21:47;;;;;;;0.10;0.10;;;;;;;11.36;100.00;101994.06;5054854;28;20100;-49
2023/07/18 00:24:13;;;;;;;0.10;0.10;;;;;;;11.40;100.00;101992.50;5054103;28;20032;-49
2023/07/18 00:26:38;;;;;;;0.10;0.10;;;;;;;11.55;100.00;101982.84;5055199;28;20021;-48
2023/07/18 00:29:03;;;;;;;0.10;0.10;;;;;;;11.57;100.00;101990.66;5055398;28;20028;-49
2023/07/18 00:31:28;;;;;;;0.08;0.08;;;;;;;11.45;100.00;101984.16;5054274;28;20365;-50
2023/07/18 00:33:54;;;;;;;0.10;0.10;;;;;;;11.46;100.00;101988.50;5055488;28;20025;-47
2023/07/18 00:36:19;;;;;;;0.10;0.10;;;;;;;11.39;100.00;101989.06;5055410;28;20021;-49
2023/07/18 00:38:44;;;;;;;0.10;0.10;;;;;;;11.59;100.00;101994.22;5054178;28;20473;-46
2023/07/18 00:41:11;;;;;;;0.10;0.10;;;;;;;11.46;100.00;101993.66;5055156;28;20412;-46
2023/07/18 00:43:37;;;;;;;0.10;0.10;;;;;;;11.42;100.00;101994.34;5054703;28;20028;-50
2023/07/18 00:46:03;;;;;;;0.10;0.10;;;;;;;11.33;100.00;101987.06;5054541;28;20427;-49
2023/07/18 00:48:31;;;;;;;0.10;0.10;;;;;;;11.30;100.00;101986.06;5055008;28;20035;-49
2023/07/18 00:50:57;;;;;;;0.10;0.10;;;;;;;11.47;100.00;101985.09;5054438;28;20025;-48
2023/07/18 00:53:23;;;;;;;0.17;0.17;;;;;;;11.39;100.00;101986.47;5054779;28;20028;-48
2023/07/18 00:55:50;;;;;;;0.10;0.10;;;;;;;11.27;100.00;101985.91;5055313;28;20021;-49
2023/07/18 00:58:16;;;;;;;0.20;0.20;;;;;;;11.27;100.00;101991.06;5054013;28;20794;-50
2023/07/18 01:00:42;;;;;;;0.10;0.10;;;;;;;11.20;100.00;101992.50;5054512;28;20040;-49
2023/07/18 01:03:07;;;;;;;0.10;0.10;;;;;;;11.25;100.00;101977.22;5054800;28;20025;-48
2023/07/18 01:05:33;;;;;;;0.15;0.15;;;;;;;11.17;100.00;101982.91;5053794;28;20029;-48
2023/07/18 01:08:00;;;;;;;0.10;0.10;;;;;;;11.23;100.00;101974.56;5054863;28;20029;-50
2023/07/18 01:10:27;;;;;;;0.10;0.10;;;;;;;11.09;100.00;101981.69;5054295;28;20377;-49
2023/07/18 01:12:54;;;;;;;0.10;0.10;;;;;;;10.85;100.00;101978.88;5053819;28;20461;-47
2023/07/18 01:15:20;;;;;;;0.20;0.20;;;;;;;10.84;100.00;101984.81;5054899;28;20021;-48
2023/07/18 01:17:47;;;;;;;0.13;0.13;;;;;;;10.66;100.00;101977.09;5054375;28;20025;-49
2023/07/18 01:20:18;;;;;;;0.15;0.15;;;;;;;10.63;100.00;101980.44;5053736;28;20024;-48
2023/07/18 01:22:49;;;;;;;0.10;0.10;;;;;;;10.65;100.00;101977.91;5054088;28;20447;-48
2023/07/18 01:25:16;;;;;;;0.10;0.10;;;;;;;10.71;100.00;101975.63;5054447;28;20024;-49
2023/07/18 01:27:45;;;;;;;0.20;0.20;;;;;;;10.65;100.00;101973.66;5053410;28;20078;-50
2023/07/18 01:30:11;;;;;;;0.10;0.10;;;;;;;10.66;100.00;101965.09;5054470;28;20021;-50
2023/07/18 01:32:37;;;;;;;0.10;0.10;;;;;;;10.66;100.00;101966.78;5053878;28;20051;-50
2023/07/18 01:35:05;;;;;;;0.10;0.10;;;;;;;10.56;100.00;101959.44;5053356;28;20017;-49
2023/07/18 01:37:36;;;;;;;0.10;0.10;;;;;;;10.53;100.00;101961.06;5053845;28;20492;-50
2023/07/18 01:40:08;;;;;;;0.10;0.10;;;;;;;10.58;100.00;101962.97;5054092;28;20488;-48
2023/07/18 01:42:34;;;;;;;0.10;0.10;;;;;;;10.56;100.00;101959.44;5053562;28;20037;-47
2023/07/18 01:45:02;;;;;;;0.10;0.10;;;;;;;10.61;100.00;101960.53;5054034;28;20083;-50
2023/07/18 01:47:28;;;;;;;0.10;0.10;;;;;;;10.63;100.00;101953.78;5052944;28;20052;-49
2023/07/18 01:49:53;;;;;;;0.10;0.10;;;;;;;10.62;100.00;101949.41;5053941;28;20025;-49
2023/07/18 01:52:18;;;;;;;0.20;0.20;;;;;;;10.59;100.00;101957.91;5053796;28;20028;-48
2023/07/18 01:54:43;;;;;;;0.10;0.10;;;;;;;10.62;100.00;101949.41;5052749;28;20036;-48
2023/07/18 01:57:09;;;;;;;0.10;0.10;;;;;;;10.64;100.00;101947.78;5053967;28;20033;-46
2023/07/18 01:59:34;;;;;;;0.10;0.10;;;;;;;10.74;100.00;101942.25;5053396;28;20436;-49
2023/07/18 02:02:02;;;;;;;0.10;0.10;;;;;;;10.66;100.00;101941.88;5052983;28;20107;-46
2023/07/18 02:04:28;;;;;;;0.10;0.10;;;;;;;10.64;100.00;101945.19;5053275;28;20036;-47
2023/07/18 02:06:53;;;;;;;0.10;0.10;;;;;;;10.64;100.00;101940.03;5053580;28;20025;-49
2023/07/18 02:09:19;;;;;;;0.10;0.10;;;;;;;10.69;100.00;101938.56;5052705;28;20047;-47
2023/07/18 02:11:44;;;;;;;0.10;0.10;;;;;;;10.75;100.00;101938.84;5053403;28;20515;-49
2023/07/18 02:14:09;;;;;;;0.10;0.10;;;;;;;10.71;100.00;101935.25;5053449;28;20679;-49
2023/07/18 02:16:35;;;;;;;0.10;0.10;;;;;;;10.85;100.00;101932.44;5052296;28;20046;-48
2023/07/18 02:19:01;;;;;;;0.17;0.17;;;;;;;10.97;100.00;101930.41;5053369;28;20031;-48
2023/07/18 02:21:27;;;;;;;0.20;0.20;;;;;;;10.85;100.00;101930.72;5052972;28;20043;-48
2023/07/18 02:23:52;;;;;;;0.10;0.10;;;;;;;10.81;100.00;101931.41;5052613;28;20079;-46
2023/07/18 02:26:18;;;;;;;0.03;0.03;;;;;;;10.76;100.00;101934.59;5053479;28;20029;-48
2023/07/18 02:28:43;;;;;;;0.10;0.10;;;;;;;10.74;100.00;101926.78;5053163;28;20056;-48
2023/07/18 02:31:08;;;;;;;0.10;0.10;;;;;;;10.82;100.00;101935.75;5052351;28;20064;-48
2023/07/18 02:33:33;;;;;;;0.10;0.10;;;;;;;10.69;100.00;101936.00;5052889;28;20040;-45
2023/07/18 02:35:59;;;;;;;0.10;0.10;;;;;;;10.66;100.00;101935.84;5053091;28;20025;-49
2023/07/18 02:38:24;;;;;;;0.20;0.20;;;;;;;10.85;100.00;101935.03;5051955;28;20090;-49
2023/07/18 02:40:50;;;;;;;0.10;0.10;;;;;;;10.87;100.00;101936.84;5053064;28;20120;-48
2023/07/18 02:43:15;;;;;;;0.17;0.17;;;;;;;10.78;100.00;101930.38;5053020;28;20107;-48
2023/07/18 02:45:40;;;;;;;0.10;0.10;;;;;;;10.97;100.00;101926.94;5051321;28;20025;-50
2023/07/18 02:48:06;;;;;;;0.10;0.10;;;;;;;10.85;100.00;101930.72;5052983;28;20028;-48
2023/07/18 02:50:31;;;;;;;0.10;0.10;;;;;;;10.81;100.00;101934.00;5051840;28;20106;-48
2023/07/18 02:52:58;;;;;;;0.10;0.10;;;;;;;10.76;100.00;101932.91;5052912;28;20108;-48
2023/07/18 02:55:24;;;;;;;0.10;0.10;;;;;;;10.67;100.00;101929.91;5052788;28;20025;-49
2023/07/18 02:57:50;;;;;;;0.10;0.10;;;;;;;10.66;100.00;101929.00;5052020;28;20029;-49
2023/07/18 03:00:19;;;;;;;0.10;0.10;;;;;;;10.61;100.00;101929.59;5052932;28;20108;-48
2023/07/18 03:02:49;;;;;;;0.10;0.10;;;;;;;10.62;100.00;101932.25;5052425;28;20029;-49
2023/07/18 03:05:18;;;;;;;0.00;0.00;;;;;;;10.57;100.00;101931.16;5052025;28;20063;-48
2023/07/18 03:07:44;;;;;;;0.10;0.10;;;;;;;10.52;100.00;101930.94;5052567;28;20029;-49
2023/07/18 03:10:10;;;;;;;0.10;0.10;;;;;;;10.50;100.00;101927.41;5052784;28;20032;-49
2023/07/18 03:12:35;;;;;;;0.10;0.10;;;;;;;10.46;100.00;101922.06;5051661;28;20025;-49
2023/07/18 03:15:02;;;;;;;0.10;0.10;;;;;;;10.47;100.00;101921.22;5052747;28;20385;-49
2023/07/18 03:17:27;;;;;;;0.10;0.10;;;;;;;10.44;100.00;101927.09;5052339;28;20496;-49
2023/07/18 03:19:52;;;;;;;0.10;0.10;;;;;;;10.49;100.00;101930.78;5051823;28;20025;-44
2023/07/18 03:22:18;;;;;;;0.10;0.10;;;;;;;10.52;100.00;101936.09;5052733;28;20025;-50
2023/07/18 03:24:43;;;;;;;0.20;0.20;;;;;;;10.48;100.00;101933.28;5052332;28;20033;-48
2023/07/18 03:27:08;;;;;;;0.17;0.17;;;;;;;10.45;100.00;101926.31;5051806;28;20422;-46
2023/07/18 03:29:34;;;;;;;0.10;0.10;;;;;;;10.44;100.00;101926.25;5052268;28;20453;-47
2023/07/18 03:32:00;;;;;;;0.15;0.15;;;;;;;10.15;100.00;101924.00;5052530;28;20485;-48
2023/07/18 03:34:27;;;;;;;0.10;0.10;;;;;;;10.30;100.00;101925.53;5051770;28;20064;-48
2023/07/18 03:36:52;;;;;;;0.10;0.10;;;;;;;10.26;100.00;101928.78;5052651;28;20029;-47
2023/07/18 03:39:17;;;;;;;0.10;0.10;;;;;;;10.26;100.00;101931.34;5052600;28;20021;-48
2023/07/18 03:41:43;;;;;;;0.10;0.10;;;;;;;10.24;100.00;101927.81;5051260;28;20051;-49
2023/07/18 03:44:08;;;;;;;0.13;0.13;;;;;;;10.19;100.00;101936.22;5052230;28;20449;-48
2023/07/18 03:46:34;;;;;;;0.10;0.10;;;;;;;10.18;100.00;101934.44;5052288;28;20461;-48
2023/07/18 03:48:59;;;;;;;0.10;0.10;;;;;;;10.15;100.00;101931.72;5051510;28;20021;-49
2023/07/18 03:51:24;;;;;;;0.10;0.10;;;;;;;10.15;100.00;101929.16;5051983;28;20033;-49
2023/07/18 03:53:50;;;;;;;0.15;0.15;;;;;;;10.24;100.00;101928.72;5051356;28;20025;-49
2023/07/18 03:56:16;;;;;;;0.10;0.10;;;;;;;10.34;100.00;101930.03;5052557;28;20493;-44
2023/07/18 03:58:42;;;;;;;0.20;0.20;;;;;;;10.19;100.00;101930.19;5055625;28;20491;-49
2023/07/18 04:01:09;;;;;;;0.10;0.10;;;;;;;10.09;100.00;101917.66;5055216;28;20033;-48
2023/07/18 04:03:34;;;;;;;0.20;0.20;;;;;;;10.00;100.00;101913.81;5055536;28;20040;-49
2023/07/18 04:06:00;;;;;;;0.10;0.10;;;;;;;9.91;100.00;101918.50;5056525;28;20029;-49
2023/07/18 04:08:25;;;;;;;0.10;0.10;;;;;;;9.99;100.00;101912.06;5054872;28;20424;-49
2023/07/18 04:10:50;;;;;;;0.15;0.15;;;;;;;9.81;100.00;101912.03;5055954;28;20048;-45
2023/07/18 04:13:16;;;;;;;0.10;0.10;;;;;;;9.87;100.00;101907.16;5055785;28;20020;-45
2023/07/18 04:15:41;;;;;;;0.10;0.10;;;;;;;9.84;100.00;101901.88;5054697;28;21066;-50
2023/07/18 04:18:06;;;;;;;0.10;0.10;;;;;;;9.94;100.00;101899.75;5055600;28;20029;-48
2023/07/18 04:20:32;;;;;;;0.10;0.10;;;;;;;9.99;100.00;101900.88;5055274;28;20060;-46
2023/07/18 04:22:57;;;;;;;0.10;0.10;;;;;;;10.26;100.00;101900.44;5054646;28;20124;-49
2023/07/18 04:25:23;;;;;;;0.10;0.10;;;;;;;10.19;100.00;101895.00;5055453;28;20071;-48
2023/07/18 04:27:48;;;;;;;0.10;0.10;;;;;;;10.43;100.00;101891.88;5055648;28;20033;-49
2023/07/18 04:30:14;;;;;;;0.10;0.10;;;;;;;10.39;100.00;101895.06;5054741;28;20017;-44
2023/07/18 04:32:42;;;;;;;0.10;0.10;;;;;;;10.54;100.00;101890.66;5055046;28;20035;-48
2023/07/18 04:35:09;;;;;;;0.00;0.00;;;;;;;10.62;100.00;101895.28;5055342;28;20021;-48
2023/07/18 04:37:35;;;;;;;0.20;0.20;;;;;;;10.69;100.00;101893.06;5054447;28;20017;-49
2023/07/18 04:40:00;;;;;;;0.10;0.10;;;;;;;10.76;100.00;101889.06;5055356;28;20025;-49
2023/07/18 04:42:25;;;;;;;0.10;0.10;;;;;;;10.87;100.00;101893.00;5054622;28;20508;-45
2023/07/18 04:44:51;;;;;;;0.10;0.10;;;;;;;11.02;100.00;101897.09;5054282;28;20069;-47
2023/07/18 04:47:16;;;;;;;0.10;0.10;;;;;;;11.01;100.00;101895.31;5055037;28;20025;-45
2023/07/18 04:49:41;;;;;;;0.10;0.10;;;;;;;11.15;100.00;101889.06;5054664;28;20036;-49
2023/07/18 04:52:07;;;;;;;0.10;0.10;;;;;;;11.28;100.00;101889.63;5054221;28;20500;-45
2023/07/18 04:54:33;;;;;;;0.10;0.10;;;;;;;11.40;100.00;101884.09;5054726;28;20063;-47
2023/07/18 04:56:58;;;;;;;0.20;0.20;;;;;;;11.44;100.00;101889.47;5054998;28;20145;-49
2023/07/18 04:59:24;;;;;;;0.10;0.10;;;;;;;11.53;100.00;101892.44;5053827;28;20137;-46
2023/07/18 05:01:55;;;;;;;0.10;0.10;;;;;;;11.57;100.00;101892.56;5054707;28;20040;-50
2023/07/18 05:04:20;;;;;;;0.10;0.10;;;;;;;11.67;100.00;101890.44;5054037;28;20028;-45
2023/07/18 05:06:46;;;;;;;0.10;0.10;;;;;;;11.72;100.00;101888.03;5054331;28;20028;-49
2023/07/18 05:09:11;;;;;;;0.08;0.08;;;;;;;11.82;100.00;101881.56;5054242;28;20071;-50
2023/07/18 05:11:36;;;;;;;0.20;0.20;;;;;;;11.85;100.00;101882.56;5053723;28;20027;-47
2023/07/18 05:14:02;;;;;;;0.10;0.10;;;;;;;11.93;100.00;101892.31;5054613;28;20023;-50
2023/07/18 05:16:27;;;;;;;0.10;0.10;;;;;;;11.99;100.00;101897.78;5054249;28;20112;-50
2023/07/18 05:18:52;;;;;;;0.15;0.15;;;;;;;12.12;100.00;101888.81;5053644;28;20021;-50
2023/07/18 05:21:18;;;;;;;0.10;0.10;;;;;;;12.19;100.00;101891.69;5054667;28;20032;-48
2023/07/18 05:23:43;;;;;;;0.10;0.10;;;;;;;12.27;100.00;101894.59;5053998;28;20056;-50
2023/07/18 05:26:10;;;;;;;0.10;0.10;;;;;;;12.36;100.00;101894.06;5053673;28;20033;-45
2023/07/18 05:28:35;;;;;;;0.10;0.10;;;;;;;12.42;100.00;101891.75;5053993;28;20029;-49
2023/07/18 05:31:07;;;;;;;0.10;0.10;;;;;;;12.47;100.00;101897.06;5054299;28;20035;-50
2023/07/18 05:33:32;;;;;;;0.10;0.10;;;;;;;12.52;100.00;101892.94;5053114;28;20017;-50
2023/07/18 05:35:57;;;;;;;0.10;0.10;;;;;;;12.60;100.00;101893.25;5054304;28;20036;-50
2023/07/18 05:38:23;;;;;;;0.10;0.10;;;;;;;12.67;100.00;101897.84;5053795;28;20102;-46
2023/07/18 05:40:48;;;;;;;0.10;0.10;;;;;;;12.77;100.00;101893.88;5053276;28;20021;-45
2023/07/18 05:43:13;;;;;;;0.10;0.10;;;;;;;12.82;100.00;101885.47;5054133;28;20032;-47
2023/07/18 05:45:39;;;;;;;0.10;0.10;;;;;;;12.89;100.00;101889.16;5053701;28;20506;-51
2023/07/18 05:48:04;;;;;;;0.17;0.17;;;;;;;12.96;100.00;101895.44;5053083;28;20553;-51
2023/07/18 05:50:29;;;;;;;0.10;0.10;;;;;;;13.04;100.00;101896.63;5053695;28;20108;-49
2023/07/18 05:52:55;;;;;;;0.00;0.00;;;;;;;13.15;100.00;101900.47;5053912;28;20044;-50
2023/07/18 05:55:20;;;;;;;0.10;0.10;;;;;;;13.23;100.00;101894.69;5053069;28;20029;-49
2023/07/18 05:57:45;;;;;;;0.10;0.10;;;;;;;13.30;100.00;101894.97;5053576;28;20110;-50
2023/07/18 06:00:11;;;;;;;0.10;0.10;;;;;;;13.34;100.00;101895.94;5053584;28;20020;-48
2023/07/18 06:02:37;;;;;;;0.10;0.10;;;;;;;13.46;100.00;101898.97;5052341;28;20059;-49
2023/07/18 06:05:02;;;;;;;0.10;0.10;;;;;;;13.60;100.00;101906.38;5053485;28;20060;-49
2023/07/18 06:07:28;;;;;;;0.10;0.10;;;;;;;13.68;100.00;101902.31;5052727;28;20025;-51
2023/07/18 06:09:53;;;;;;;0.10;0.10;;;;;;;13.79;100.00;101906.16;5053813;28;20029;-51
2023/07/18 06:12:18;;;;;;;0.10;0.10;;;;;;;13.81;100.00;101901.00;5053576;28;20057;-51
2023/07/18 06:14:44;;;;;;;0.10;0.10;;;;;;;13.93;100.00;101901.44;5052468;28;20131;-49
2023/07/18 06:17:09;;;;;;;0.10;0.10;;;;;;;13.99;100.00;101903.31;5053615;28;20374;-49
2023/07/18 06:19:34;;;;;;;0.10;0.10;;;;;;;14.11;100.00;101903.75;5052965;28;20488;-46
2023/07/18 06:22:00;;;;;;;0.10;0.10;;;;;;;14.13;100.00;101902.06;5052075;28;20354;-48
2023/07/18 06:24:25;;;;;;;0.10;0.10;;;;;;;14.25;100.00;101898.09;5052980;28;20029;-50
2023/07/18 06:26:51;;;;;;;0.03;0.03;;;;;;;14.32;99.89;101898.34;5053185;28;20095;-50
2023/07/18 06:29:17;;;;;;;0.10;0.10;;;;;;;14.41;98.07;101902.94;5052409;28;20029;-49
2023/07/18 06:31:44;;;;;;;0.10;0.10;;;;;;;14.53;97.33;101901.56;5052843;28;20357;-49
2023/07/18 06:34:09;;;;;;;0.10;0.10;;;;;;;14.59;97.40;101896.53;5053319;28;20033;-51
2023/07/18 06:36:35;;;;;;;0.10;0.10;;;;;;;14.66;97.63;101901.09;5052181;28;20032;-51
2023/07/18 06:39:00;;;;;;;0.10;0.10;;;;;;;14.79;96.68;101911.00;5053146;28;20024;-50
2023/07/18 06:41:25;;;;;;;0.10;0.10;;;;;;;14.87;96.49;101899.97;5052547;28;20451;-50
2023/07/18 06:43:51;;;;;;;0.10;0.10;;;;;;;15.02;95.68;101902.13;5052043;28;20366;-50
2023/07/18 06:46:16;;;;;;;0.10;0.10;;;;;;;15.07;93.79;101895.34;5052841;28;20029;-49
2023/07/18 06:48:42;;;;;;;0.10;0.10;;;;;;;15.17;94.23;101896.47;5052858;28;20115;-49
2023/07/18 06:51:08;;;;;;;0.10;0.10;;;;;;;15.27;92.27;101899.38;5052054;28;20060;-50
2023/07/18 06:53:33;;;;;;;0.10;0.10;;;;;;;15.40;93.62;101900.59;5052592;28;20033;-50
2023/07/18 06:55:58;;;;;;;0.10;0.10;;;;;;;15.53;92.77;101900.91;5052951;28;20017;-47
2023/07/18 06:58:24;;;;;;;0.10;0.10;;;;;;;15.63;91.21;101893.41;5051705;28;20096;-47
2023/07/18 07:00:50;;;;;;;0.10;0.10;;;;;;;15.71;89.68;101888.41;5052680;28;20500;-43
2023/07/18 07:03:15;;;;;;;0.10;0.10;;;;;;;15.78;88.53;101892.88;5052599;28;20442;-47
2023/07/18 07:05:42;;;;;;;0.10;0.10;;;;;;;15.96;88.04;101889.03;5051505;28;20508;-47
2023/07/18 07:08:12;;;;;;;0.10;0.10;;;;;;;16.00;88.39;101890.84;5052806;28;20025;-49
2023/07/18 07:10:39;;;;;;;0.10;0.10;;;;;;;16.21;87.25;101892.19;5052426;28;20033;-46
2023/07/18 07:13:05;;;;;;;0.10;0.10;;;;;;;16.22;85.11;101896.56;5051981;28;20078;-48
2023/07/18 07:15:31;;;;;;;0.10;0.10;;;;;;;16.30;86.00;101892.41;5052235;28;20032;-48
2023/07/18 07:17:56;;;;;;;0.00;0.00;;;;;;;16.34;85.62;101894.22;5052098;28;20025;-48
2023/07/18 07:20:24;;;;;;;0.10;0.10;;;;;;;16.41;84.10;101893.53;5052931;28;20358;-48
2023/07/18 07:22:51;;;;;;;0.10;0.10;;;;;;;16.61;83.07;101891.34;5052665;28;20025;-48
2023/07/18 07:25:16;;;;;;;0.10;0.10;;;;;;;16.63;78.57;101894.88;5051858;28;20107;-48
2023/07/18 07:27:44;;;;;;;0.10;0.10;;;;;;;16.87;78.32;101897.94;5052243;28;20414;-48
2023/07/18 07:30:10;;;;;;;0.10;0.10;;;;;;;16.98;77.50;101893.88;5052510;28;20033;-48
2023/07/18 07:32:35;;;;;;;0.10;0.10;;;;;;;17.01;78.13;101893.94;5053913;28;20035;-44
2023/07/18 07:35:01;;;;;;;0.10;0.10;;;;;;;17.01;77.36;101885.25;5056588;28;20028;-48
2023/07/18 07:37:26;;;;;;;0.05;0.05;;;;;;;17.13;77.10;101887.19;5056203;28;20029;-47
2023/07/18 07:39:51;;;;;;;0.10;0.10;;;;;;;17.20;77.79;101894.31;5055620;28;20109;-44
2023/07/18 07:42:16;;;;;;;0.10;0.10;;;;;;;17.32;78.12;101893.66;5056053;28;20124;-47
2023/07/18 07:44:42;;;;;;;0.00;0.00;;;;;;;17.51;78.03;101894.88;5056053;28;20115;-48
2023/07/18 07:47:07;;;;;;;0.10;0.10;;;;;;;17.54;76.45;101889.69;5055608;28;20033;-46
2023/07/18 07:49:33;;;;;;;0.10;0.10;;;;;;;17.58;75.06;101892.38;5056091;28;20023;-48
2023/07/18 07:51:58;;;;;;;0.10;0.10;;;;;;;17.76;74.12;101891.78;5056425;28;20060;-48
2023/07/18 07:54:23;;;;;;;0.00;0.00;;;;;;;17.78;69.47;101890.09;5055242;28;20063;-44
2023/07/18 07:56:48;;;;;;;0.00;0.00;;;;;;;17.94;71.18;101888.63;5056074;28;20384;-44
2023/07/18 07:59:14;;;;;;;0.10;0.10;;;;;;;17.99;69.59;101888.72;5056205;28;20037;-45
2023/07/18 08:01:39;;;;;;;0.00;0.00;;;;;;;18.02;70.15;101886.16;5054931;28;20021;-46
2023/07/18 08:04:04;;;;;;;0.00;0.00;;;;;;;18.19;70.80;101880.31;5056049;28;20029;-46
2023/07/18 08:06:30;;;;;;;0.00;0.00;;;;;;;18.25;68.17;101886.50;5055701;28;20051;-45
2023/07/18 08:08:55;;;;;;;0.08;0.08;;;;;;;18.32;68.16;101879.66;5055194;28;20406;-45
2023/07/18 08:11:20;;;;;;;0.10;0.10;;;;;;;18.40;69.42;101883.22;5055837;28;20396;-47
2023/07/18 08:13:46;;;;;;;0.00;0.00;;;;;;;18.40;68.86;101879.75;5055546;28;20040;-48
2023/07/18 08:16:11;;;;;;;0.00;0.00;;;;;;;18.41;68.61;101871.94;5055287;28;20021;-46
2023/07/18 08:18:37;;;;;;;0.00;0.00;;;;;;;18.63;68.81;101874.84;5055533;28;20048;-44
2023/07/18 08:21:02;;;;;;;0.00;0.00;;;;;;;18.72;68.62;101876.66;5055143;28;20365;-44
2023/07/18 08:23:27;;;;;;;0.10;0.00;;;;;;;18.82;64.87;101878.53;5055772;28;20044;-46
2023/07/18 08:25:54;;;;;;;0.00;0.00;;;;;;;18.99;64.44;101865.72;5055671;28;20025;-44
2023/07/18 08:28:19;;;;;;;0.00;0.00;;;;;;;19.07;61.62;101871.88;5054672;28;20052;-43
2023/07/18 08:30:45;;;;;;;0.00;0.00;;;;;;;19.12;57.46;101871.06;5055114;28;20121;-43
2023/07/18 08:33:10;;;;;;;0.00;0.00;;;;;;;19.26;56.72;101866.84;5055406;28;20037;-44
2023/07/18 08:35:39;;;;;;;0.00;0.00;;;;;;;19.34;56.58;101859.06;5054419;28;20033;-47
2023/07/18 08:38:04;;;;;;;0.00;0.00;;;;;;;19.39;56.03;101865.22;5055576;28;20017;-47
2023/07/18 08:40:30;;;;;;;0.00;0.00;;;;;;;19.42;55.37;101870.50;5055096;28;20048;-43
2023/07/18 08:42:56;;;;;;;0.10;0.03;;;;;;;19.50;54.30;101862.72;5053505;28;20477;-47
2023/07/18 08:45:24;;;;;;;0.00;0.00;;;;;;;19.68;54.69;101855.03;5055112;28;20469;-43
2023/07/18 08:47:56;;;;;;;0.00;0.00;;;;;;;19.77;53.14;101850.72;5055069;28;20472;-46
2023/07/18 08:50:25;;;;;;;0.00;0.00;;;;;;;19.81;52.37;101852.50;5054391;28;20107;-44
2023/07/18 08:52:50;;;;;;;0.05;0.05;;;;;;;19.86;52.32;101845.59;5055060;28;20103;-47
2023/07/18 08:55:15;;;;;;;0.00;0.00;;;;;;;19.90;51.15;101848.22;5054972;28;20052;-45
2023/07/18 08:57:41;;;;;;;0.00;0.00;;;;;;;19.98;52.71;101850.91;5053945;28;20025;-47
2023/07/18 09:00:07;;;;;;;0.00;0.00;;;;;;;20.00;53.33;101849.19;5055059;28;20040;-44
2023/07/18 09:02:33;;;;;;;0.00;0.00;;;;;;;20.15;53.22;101847.53;5054660;28;20427;-43
2023/07/18 09:04:58;;;;;;;0.00;0.00;;;;;;;20.18;51.46;101844.91;5054071;28;20539;-45
2023/07/18 09:07:27;;;;;;;0.00;0.00;;;;;;;20.44;51.94;101844.16;5054516;28;20036;-44
2023/07/18 09:09:55;;;;;;;0.00;0.00;;;;;;;20.42;50.18;101841.53;5054612;28;20067;-43
2023/07/18 09:12:20;;;;;;;0.05;0.00;;;;;;;20.60;51.52;101838.13;5053849;28;20024;-43
2023/07/18 09:14:46;;;;;;;0.00;0.00;;;;;;;20.75;51.70;101829.50;5054326;28;20041;-46
2023/07/18 09:17:11;;;;;;;0.00;0.00;;;;;;;20.78;48.07;101833.88;5054686;28;20487;-43
2023/07/18 09:19:45;;;;;;;0.00;0.00;;;;;;;20.94;49.46;101819.94;5053425;28;20087;-43
2023/07/18 09:22:12;;;;;;;0.00;0.00;;;;;;;20.85;47.94;101826.03;5054528;28;20100;-45
2023/07/18 09:24:39;;;;;;;;;;;;;;;21.15;48.59;101823.44;5053570;28;20029;-45
2023/07/18 09:27:15;;;;;;;0.00;0.00;;;;;;;21.14;47.10;101824.34;5054407;28;20424;-45
2023/07/18 09:29:48;;;;;;;0.00;0.00;;;;;;;21.09;45.46;101823.47;5054236;28;20047;-48
2023/07/18 09:32:17;;;;;;;0.00;0.00;;;;;;;21.24;45.97;101818.22;5053672;28;20040;-48
2023/07/18 09:34:54;;;;;;;0.00;0.00;;;;;;;21.42;46.88;101811.22;5053760;28;20425;-46
2023/07/18 09:37:20;;;;;;;0.00;0.00;;;;;;;21.75;45.93;101817.38;5054435;28;20071;-47
2023/07/18 09:39:46;;;;;;;0.00;0.00;;;;;;;22.01;44.98;101812.94;5053269;28;20095;-44
2023/07/18 09:42:12;;;;;;;0.00;0.00;;;;;;;22.08;44.14;101812.91;5053957;28;20116;-47
2023/07/18 09:44:40;;;;;;;0.00;0.00;;;;;;;22.25;44.92;101811.09;5053748;28;20025;-44
2023/07/18 09:47:06;;;;;;;0.00;0.00;;;;;;;22.35;43.49;101811.97;5053246;28;20033;-46
2023/07/18 09:49:33;;;;;;;0.00;0.00;;;;;;;22.03;43.68;101813.78;5053510;28;20401;-45
2023/07/18 09:52:05;;;;;;;0.10;0.00;;;;;;;21.91;45.04;101813.84;5054089;28;20021;-45
2023/07/18 09:54:32;;;;;;;0.00;0.00;;;;;;;21.81;45.06;101812.13;5052640;28;20098;-47
2023/07/18 09:57:05;;;;;;;0.00;0.00;;;;;;;21.78;45.57;101814.72;5053997;28;20074;-44
2023/07/18 09:59:31;;;;;;;0.00;0.00;;;;;;;21.84;46.63;101819.97;5052673;28;20126;-47
2023/07/18 10:01:57;;;;;;;0.00;0.00;;;;;;;22.06;44.22;101809.44;5053863;28;20469;-43
2023/07/18 10:04:23;;;;;;;0.00;0.00;;;;;;;22.88;42.97;101807.31;5053428;28;20282;-43
2023/07/18 10:06:50;;;;;;;0.00;0.00;;;;;;;22.99;43.61;101800.22;5052972;28;20121;-43
2023/07/18 10:09:16;;;;;;;0.00;0.00;;;;;;;23.56;43.92;101801.53;5053514;28;20385;-47
2023/07/18 10:12:03;;;;;;;0.00;0.00;;;;;;;23.85;42.98;101803.03;5053168;28;20388;-44
2023/07/18 10:14:52;;;;;;;0.00;0.00;;;;;;;24.03;42.77;101798.47;5052255;28;20115;-47
2023/07/18 10:17:24;;;;;;;0.00;0.00;;;;;;;23.84;40.67;101788.97;5053687;28;20017;-46
2023/07/18 10:19:50;;;;;;;0.00;0.00;;;;;;;23.96;40.83;101790.66;5053419;28;20392;-45
2023/07/18 10:22:29;;;;;;;0.00;0.00;;;;;;;24.14;41.09;101786.06;5052974;28;20452;-47
2023/07/18 10:25:18;;;;;;;0.00;0.00;;;;;;;24.22;40.80;101776.31;5053168;28;20358;-43
2023/07/18 10:27:44;;;;;;;0.00;0.00;;;;;;;24.46;41.09;101768.97;5045618;28;20095;-43
2023/07/18 10:30:12;;;;;;;0.00;0.00;;;;;;;23.93;39.17;101769.63;5053172;28;20474;-44
2023/07/18 10:32:38;;;;;;;0.00;0.00;;;;;;;23.46;38.86;101769.19;5053061;28;20032;-46
2023/07/18 10:35:12;;;;;;;0.00;0.00;;;;;;;23.65;39.16;101764.63;5052478;28;20397;-43
2023/07/18 10:37:42;;;;;;;0.00;0.00;;;;;;;24.12;38.46;101764.16;5052753;28;20369;-48
2023/07/18 10:40:08;;;;;;;0.00;0.00;;;;;;;25.61;37.22;101747.78;5053158;28;20021;-43
2023/07/18 10:42:34;;;;;;;0.00;0.00;;;;;;;25.97;35.54;101750.59;5051762;28;20111;-46
2023/07/18 10:45:03;;;;;;;0.00;0.00;;;;;;;26.61;33.99;101749.25;5053061;28;20060;-46
2023/07/18 10:47:29;;;;;;;0.00;0.00;;;;;;;27.10;33.69;101755.16;5052594;28;20381;-48
2023/07/18 10:49:55;;;;;;;0.00;0.00;;;;;;;27.71;32.29;101750.03;5052151;28;20529;-46
2023/07/18 10:52:21;;;;;;;0.00;0.00;;;;;;;27.63;31.81;101749.41;5053094;28;20021;-45
2023/07/18 10:54:57;;;;;;;0.00;0.00;;;;;;;27.68;32.79;101743.97;5052699;28;20039;-47
2023/07/18 10:57:34;;;;;;;0.00;0.00;;;;;;;28.30;32.63;101747.50;5051898;28;20025;-47
2023/07/18 11:00:00;;;;;;;0.00;0.00;;;;;;;28.08;31.83;101762.28;5052822;28;20087;-43
2023/07/18 11:02:27;;;;;;;0.00;0.00;;;;;;;28.35;29.80;101751.72;5052413;28;20028;-48
2023/07/18 11:04:53;;;;;;;;;;;;;;;29.03;31.79;101748.72;5052521;28;20063;-45
2023/07/18 11:07:33;;;;;;;0.00;0.00;;;;;;;28.71;29.55;101745.34;5052478;28;20349;-49
2023/07/18 11:09:59;;;;;;;0.00;0.00;;;;;;;29.19;29.25;101742.00;5052080;28;20021;-48
2023/07/18 11:12:24;;;;;;;0.00;0.00;;;;;;;29.37;28.38;101745.81;5052468;28;20021;-44
2023/07/18 11:14:50;;;;;;;0.00;0.00;;;;;;;29.58;28.19;101740.66;5052648;28;20025;-48
2023/07/18 11:17:17;;;;;;;0.00;0.00;;;;;;;29.20;28.19;101745.50;5052016;28;20025;-46
2023/07/18 11:19:43;;;;;;;0.00;0.00;;;;;;;29.26;27.98;101755.91;5052701;28;20068;-46